MSC Kwangyang — D5NP6 — position and weather

sailwx.info

Track history (hours):
 
Tides and Currents Weather Stations Pressure Air Temp Water Temp Dewpoint Dewpoint Depression Visibility Wind Speed Wind Dir Waves Ship Positions

MSC Kwangyang

Last reported at 2018-Jun-19 06:30 UTC. Time now 2018-Jun-19 06:49 UTC.
Position N 43°15' E 009°41'.

Length 304 m; draft 10.1 m.

Type: Ship. MMSI: 636017973.

Date/timePositionNaut miles runAvg speedWind from/ knotsBaromVisibWave heightAir tempDewpointWater temp
2018-Jun-19 06:30N 43°15' E 009°41'1019.3
2018-Jun-19 06:01N 43°05' E 009°38'1020.3
2018-Jun-19 05:31N 42°55' E 009°40'1122.7
2018-Jun-19 05:01N 42°44' E 009°45'1222.5
2018-Jun-19 04:28N 42°33' E 009°50'1022.3
2018-Jun-19 04:01N 42°23' E 009°55'1121.9
2018-Jun-19 03:31N 42°15' E 010°05'1222.6
2018-Jun-19 02:59N 42°09' E 010°18'1222.8
2018-Jun-19 02:27N 42°01' E 010°31'7223.0
2018-Jun-18 23:21N 41°19' E 011°49'823.6
2018-Jun-18 23:01N 41°15' E 011°57'1223.1
2018-Jun-18 22:30N 41°08' E 012°09'1822.7
2018-Jun-18 21:44N 40°57' E 012°28'522.7
2018-Jun-18 21:30N 40°54' E 012°34'1123.0
2018-Jun-18 21:01N 40°48' E 012°46'1122.6
2018-Jun-18 20:30N 40°43' E 012°60'1122.9
2018-Jun-18 20:00N 40°42' E 013°15'1122.8
2018-Jun-18 19:30N 40°40' E 013°30'1122.6
2018-Jun-18 19:00N 40°39' E 013°45'1122.5
2018-Jun-18 18:30N 40°38' E 013°59'1122.2
2018-Jun-18 18:00N 40°44' E 014°12'714.5
2018-Jun-18 17:31N 40°49' E 014°18'1 2.4
2018-Jun-18 16:59N 40°50' E 014°17'0 0.0
2018-Jun-18 16:29N 40°50' E 014°17'0 0.0
2018-Jun-18 15:59N 40°50' E 014°17'0 0.0
2018-Jun-18 15:29N 40°50' E 014°17'0 0.0
2018-Jun-18 14:59N 40°50' E 014°17'0 0.0
2018-Jun-18 14:29N 40°50' E 014°17'0 0.0
2018-Jun-18 13:59N 40°50' E 014°17'0 0.0
2018-Jun-18 13:29N 40°50' E 014°17'0 0.0
2018-Jun-18 12:59N 40°50' E 014°17'0 0.0
2018-Jun-18 12:29N 40°50' E 014°17'0 0.0
2018-Jun-18 11:59N 40°50' E 014°17'0 0.0
2018-Jun-18 11:29N 40°50' E 014°17'0 0.0
2018-Jun-18 10:59N 40°50' E 014°17'0 0.0
2018-Jun-18 10:29N 40°50' E 014°17'0 0.0
2018-Jun-18 09:59N 40°50' E 014°17'0 0.0
2018-Jun-18 09:29N 40°50' E 014°17'0 0.0
2018-Jun-18 08:59N 40°50' E 014°17'0 0.0
2018-Jun-18 08:29N 40°50' E 014°17'0 0.0
2018-Jun-18 07:59N 40°50' E 014°17'0 0.0
2018-Jun-18 07:29N 40°50' E 014°17'0 0.0
2018-Jun-18 06:59N 40°50' E 014°17'0 0.0
2018-Jun-18 06:29N 40°50' E 014°17'0 0.0
2018-Jun-18 05:59N 40°50' E 014°17'0 0.0
2018-Jun-18 05:29N 40°50' E 014°17'0 0.0
2018-Jun-18 04:59N 40°50' E 014°17'0 0.0
2018-Jun-18 04:29N 40°50' E 014°17'0 0.0
2018-Jun-18 03:59N 40°50' E 014°17'0 0.0
2018-Jun-18 03:29N 40°50' E 014°17'0 0.0
2018-Jun-18 02:59N 40°50' E 014°17'0 0.1
2018-Jun-18 02:29N 40°50' E 014°17'0 0.0
2018-Jun-18 01:59N 40°50' E 014°17'0 0.0
2018-Jun-18 01:29N 40°50' E 014°17'0 0.0
2018-Jun-18 00:59N 40°50' E 014°17'0 0.0
2018-Jun-18 00:29N 40°50' E 014°17'0 0.0
2018-Jun-17 23:56N 40°50' E 014°17'0 0.0
2018-Jun-17 23:29N 40°50' E 014°17'0 0.0
2018-Jun-17 22:59N 40°50' E 014°17'0 0.0
2018-Jun-17 22:29N 40°50' E 014°17'0 0.0
2018-Jun-17 21:59N 40°50' E 014°17'0 0.0
2018-Jun-17 21:29N 40°50' E 014°17'0 0.0
2018-Jun-17 20:59N 40°50' E 014°17'0 0.0
2018-Jun-17 20:29N 40°50' E 014°17'0 0.0
2018-Jun-17 19:59N 40°50' E 014°17'0 0.0
2018-Jun-17 19:29N 40°50' E 014°17'0 0.0
2018-Jun-17 18:59N 40°50' E 014°17'0 0.0
2018-Jun-17 18:29N 40°50' E 014°17'0 0.0
2018-Jun-17 17:59N 40°50' E 014°17'0 0.0
2018-Jun-17 17:29N 40°50' E 014°17'0 0.0
2018-Jun-17 16:59N 40°50' E 014°17'0 0.0
2018-Jun-17 16:29N 40°50' E 014°17'0 0.0
2018-Jun-17 15:59N 40°50' E 014°17'0 0.2
2018-Jun-17 15:30N 40°50' E 014°17'2 3.2
2018-Jun-17 15:00N 40°49' E 014°17'5 9.7
2018-Jun-17 14:30N 40°44' E 014°15'1 2.3
2018-Jun-17 14:00N 40°43' E 014°15'0 0.4
2018-Jun-17 13:30N 40°43' E 014°15'0 0.9
2018-Jun-17 13:00N 40°42' E 014°14'1 2.9
2018-Jun-17 12:30N 40°41' E 014°14'611.5
2018-Jun-17 12:00N 40°36' E 014°09'711.6
2018-Jun-17 11:22N 40°29' E 014°09'512.3
2018-Jun-17 10:59N 40°25' E 014°12'612.4
2018-Jun-17 10:30N 40°20' E 014°17'612.6
2018-Jun-17 10:00N 40°15' E 014°21'612.6
2018-Jun-17 09:30N 40°09' E 014°26'612.4
2018-Jun-17 09:00N 40°04' E 014°30'11612.6
2018-Jun-16 23:49N 38°28' E 015°53'1 4.5
2018-Jun-16 23:30N 38°27' E 015°54'0 0.5
2018-Jun-16 22:56N 38°27' E 015°54'0 0.0
2018-Jun-16 22:26N 38°27' E 015°54'0 0.0
2018-Jun-16 21:56N 38°27' E 015°54'0 0.1
2018-Jun-16 21:26N 38°27' E 015°54'0 0.1
2018-Jun-16 20:56N 38°27' E 015°54'0 0.0
2018-Jun-16 20:26N 38°27' E 015°54'0 0.0
2018-Jun-16 19:56N 38°27' E 015°54'0 0.0
2018-Jun-16 19:26N 38°27' E 015°54'0 0.0
2018-Jun-16 17:08N 38°27' E 015°54'0 0.0
2018-Jun-16 16:56N 38°27' E 015°54'0 0.0
2018-Jun-16 16:26N 38°27' E 015°54'0 0.0
2018-Jun-16 15:56N 38°27' E 015°54'0 0.0
2018-Jun-16 15:26N 38°27' E 015°54'0 0.0
2018-Jun-16 14:56N 38°27' E 015°54'0 0.0
2018-Jun-16 14:26N 38°27' E 015°54'0 0.0
2018-Jun-16 13:56N 38°27' E 015°54'0 0.0
2018-Jun-16 13:26N 38°27' E 015°54'0 0.0
2018-Jun-16 12:56N 38°27' E 015°54'0 0.0
2018-Jun-16 12:20N 38°27' E 015°54'0 0.0
2018-Jun-16 11:56N 38°27' E 015°54'0 0.0
2018-Jun-16 11:26N 38°27' E 015°54'0 0.0
2018-Jun-16 10:56N 38°27' E 015°54'0 0.0
2018-Jun-16 10:26N 38°27' E 015°54'0 0.0
2018-Jun-16 09:56N 38°27' E 015°54'0 0.0
2018-Jun-16 09:26N 38°27' E 015°54'0 0.0
2018-Jun-16 08:56N 38°27' E 015°54'0 0.0
2018-Jun-16 08:26N 38°27' E 015°54'0 0.0
2018-Jun-16 07:56N 38°27' E 015°54'0 0.0
2018-Jun-16 07:26N 38°27' E 015°54'0 0.0
2018-Jun-16 06:56N 38°27' E 015°54'0 0.0
2018-Jun-16 05:44N 38°27' E 015°54'0 0.0
2018-Jun-16 05:26N 38°27' E 015°54'0 0.0
2018-Jun-16 04:56N 38°27' E 015°54'0 0.0
2018-Jun-16 04:26N 38°27' E 015°54'0 0.0
2018-Jun-16 03:56N 38°27' E 015°54'0 0.0
2018-Jun-16 03:26N 38°27' E 015°54'0 0.0
2018-Jun-16 02:56N 38°27' E 015°54'0 0.0
2018-Jun-16 02:26N 38°27' E 015°54'0 0.0
2018-Jun-16 01:50N 38°27' E 015°54'0 0.0
2018-Jun-16 01:26N 38°27' E 015°54'0 0.0
2018-Jun-16 00:56N 38°27' E 015°54'0 0.0
2018-Jun-16 00:26N 38°27' E 015°54'0 0.0
2018-Jun-15 23:56N 38°27' E 015°54'0 0.1
2018-Jun-15 23:26N 38°27' E 015°54'0 0.1
2018-Jun-15 22:56N 38°27' E 015°54'0 0.0
2018-Jun-15 22:26N 38°27' E 015°54'0 0.0
2018-Jun-15 21:56N 38°27' E 015°54'0 0.0
2018-Jun-15 21:26N 38°27' E 015°54'0 0.0
2018-Jun-15 20:56N 38°27' E 015°54'0 0.0
2018-Jun-15 20:26N 38°27' E 015°54'0 0.0
2018-Jun-15 19:56N 38°27' E 015°54'0 0.0
2018-Jun-15 19:26N 38°27' E 015°54'0 0.0
2018-Jun-15 18:56N 38°27' E 015°54'0 0.0
2018-Jun-15 18:26N 38°27' E 015°54'0 0.0
2018-Jun-15 17:44N 38°27' E 015°54'0 0.0
2018-Jun-15 17:26N 38°27' E 015°54'0 0.0
2018-Jun-15 16:56N 38°27' E 015°54'0 0.0
2018-Jun-15 16:20N 38°27' E 015°54'0 0.0
2018-Jun-15 15:56N 38°27' E 015°54'0 0.0
2018-Jun-15 15:26N 38°27' E 015°54'0 0.0
2018-Jun-15 14:56N 38°27' E 015°54'0 0.0
2018-Jun-15 14:20N 38°27' E 015°54'0 0.0
2018-Jun-15 13:50N 38°27' E 015°54'0 0.0
2018-Jun-15 13:26N 38°27' E 015°54'0 0.0
2018-Jun-15 12:56N 38°27' E 015°54'0 0.0
2018-Jun-15 12:26N 38°27' E 015°54'0 0.0
2018-Jun-15 11:56N 38°27' E 015°54'0 0.0
2018-Jun-15 11:26N 38°27' E 015°54'0 0.0
2018-Jun-15 10:56N 38°27' E 015°54'0 0.0
2018-Jun-15 10:26N 38°27' E 015°54'0 0.0
2018-Jun-15 09:56N 38°27' E 015°54'0 0.0
2018-Jun-15 09:26N 38°27' E 015°54'0 0.0
2018-Jun-15 08:56N 38°27' E 015°54'0 0.0
2018-Jun-15 08:26N 38°27' E 015°54'0 0.0
2018-Jun-15 07:56N 38°27' E 015°54'0 0.0
2018-Jun-15 07:26N 38°27' E 015°54'0 0.0
2018-Jun-15 06:56N 38°27' E 015°54'0 0.0
2018-Jun-15 06:20N 38°27' E 015°54'0 0.0
2018-Jun-15 05:56N 38°27' E 015°54'0 0.0
2018-Jun-15 05:26N 38°27' E 015°54'0 0.0
2018-Jun-15 04:56N 38°27' E 015°54'0 0.0
2018-Jun-15 04:20N 38°27' E 015°54'0 0.0
2018-Jun-15 03:56N 38°27' E 015°54'0 0.0
2018-Jun-15 03:29N 38°27' E 015°54'1 2.5
2018-Jun-15 03:00N 38°27' E 015°53'4 7.7
2018-Jun-15 02:30N 38°29' E 015°48'713.6
2018-Jun-15 01:59N 38°32' E 015°40'714.0
2018-Jun-15 01:29N 38°35' E 015°32'713.7
2018-Jun-15 01:00N 38°37' E 015°24'713.6
2018-Jun-15 00:30N 38°40' E 015°17'713.5
2018-Jun-15 00:00N 38°43' E 015°09'713.5
2018-Jun-14 23:29N 38°44' E 015°00'714.0
2018-Jun-14 23:00N 38°45' E 014°52'6513.3
2018-Jun-14 18:10N 38°50' E 013°29'213.7
2018-Jun-14 18:00N 38°50' E 013°26'714.0
2018-Jun-14 17:29N 38°50' E 013°17'814.4
2018-Jun-14 16:56N 38°50' E 013°07'714.6
2018-Jun-14 16:27N 38°50' E 012°57'48416.9
2018-Jun-13 11:48N 41°01' E 002°50'720.4
2018-Jun-13 11:27N 41°05' E 002°42'920.1
2018-Jun-13 11:01N 41°10' E 002°32'1019.7
2018-Jun-13 10:30N 41°13' E 002°20'816.4
2018-Jun-13 10:00N 41°18' E 002°10'1 2.6
2018-Jun-13 09:30N 41°18' E 002°09'0 0.4
2018-Jun-13 09:00N 41°19' E 002°09'0 0.0
2018-Jun-13 08:27N 41°19' E 002°09'0 0.0
2018-Jun-13 08:00N 41°19' E 002°09'0 0.0
2018-Jun-13 07:30N 41°19' E 002°09'0 0.1
2018-Jun-13 07:00N 41°19' E 002°09'0 0.1
2018-Jun-13 06:30N 41°19' E 002°09'0 0.0
2018-Jun-13 06:00N 41°19' E 002°09'0 0.0
2018-Jun-13 05:30N 41°19' E 002°09'0 0.0
2018-Jun-13 05:00N 41°19' E 002°09'0 0.0
2018-Jun-13 04:30N 41°19' E 002°09'0 0.0
2018-Jun-13 04:00N 41°19' E 002°09'0 0.0
2018-Jun-13 03:30N 41°19' E 002°09'0 0.0
2018-Jun-13 03:00N 41°19' E 002°09'0 0.0
2018-Jun-13 02:30N 41°19' E 002°09'0 0.0
2018-Jun-13 02:00N 41°19' E 002°09'0 0.0
2018-Jun-13 01:30N 41°19' E 002°09'0 0.0
2018-Jun-13 01:00N 41°19' E 002°09'0 0.0
2018-Jun-13 00:30N 41°19' E 002°09'0 0.0
2018-Jun-13 00:00N 41°19' E 002°09'0 0.0
2018-Jun-12 23:30N 41°19' E 002°09'0 0.0
2018-Jun-12 23:00N 41°19' E 002°09'0 0.0
2018-Jun-12 22:30N 41°19' E 002°09'0 0.0
2018-Jun-12 22:00N 41°19' E 002°09'0 0.0
2018-Jun-12 21:30N 41°19' E 002°09'0 0.0
2018-Jun-12 20:57N 41°19' E 002°09'0 0.0
2018-Jun-12 20:30N 41°19' E 002°09'0 0.0
2018-Jun-12 20:00N 41°19' E 002°09'0 0.0
2018-Jun-12 19:30N 41°19' E 002°09'0 0.0
2018-Jun-12 19:00N 41°19' E 002°09'0 0.0
2018-Jun-12 18:30N 41°19' E 002°09'0 0.0
2018-Jun-12 18:00N 41°19' E 002°09'0 0.0
2018-Jun-12 17:30N 41°19' E 002°09'0 0.0
2018-Jun-12 17:00N 41°19' E 002°09'0 0.3
2018-Jun-12 16:30N 41°19' E 002°09'1 2.7
2018-Jun-12 16:00N 41°18' E 002°11'3 6.0
2018-Jun-12 15:30N 41°15' E 002°11'510.9
2018-Jun-12 15:00N 41°10' E 002°08'612.3
2018-Jun-12 14:30N 41°05' E 002°04'612.3
2018-Jun-12 14:00N 40°59' E 002°00'713.0
2018-Jun-12 13:30N 40°53' E 001°56'913.2
2018-Jun-12 12:51N 40°46' E 001°51'14614.7
2018-Jun-12 02:55N 38°36' E 000°23'1019.1
2018-Jun-12 02:24N 38°28' E 000°16'819.0
2018-Jun-12 01:58N 38°21' E 000°10'919.2
2018-Jun-12 01:29N 38°13' E 000°04'919.3
2018-Jun-12 01:00N 38°05' W 000°03'1219.1
2018-Jun-12 00:22N 37°56' W 000°12'719.2
2018-Jun-12 00:00N 37°50' W 000°16'919.0
2018-Jun-11 23:30N 37°42' W 000°23'918.8
2018-Jun-11 23:00N 37°34' W 000°30'918.9
2018-Jun-11 22:30N 37°27' W 000°38'1819.3
2018-Jun-11 21:35N 37°16' W 000°55'219.4
2018-Jun-11 21:30N 37°14' W 000°57'1019.4
2018-Jun-11 21:00N 37°08' W 001°05'1119.4
2018-Jun-11 20:27N 37°01' W 001°15'919.2
2018-Jun-11 19:57N 36°54' W 001°24'37812.9
2018-Jun-10 14:38N 37°20' W 009°17'213.1
2018-Jun-10 14:30N 37°22' W 009°16'1313.0
2018-Jun-10 13:30N 37°33' W 009°07'612.9
2018-Jun-10 13:00N 37°38' W 009°03'612.9
2018-Jun-10 12:30N 37°44' W 008°58'612.8
2018-Jun-10 12:00N 37°49' W 008°54'612.3
2018-Jun-10 11:30N 37°55' W 008°50'1 2.7
2018-Jun-10 11:00N 37°56' W 008°51'0 0.0
2018-Jun-10 10:30N 37°56' W 008°51'0 0.0
2018-Jun-10 10:00N 37°56' W 008°51'0 0.0
2018-Jun-10 09:30N 37°56' W 008°51'0 0.0
2018-Jun-10 09:00N 37°56' W 008°51'0 0.0
2018-Jun-10 08:30N 37°56' W 008°51'0 0.0
2018-Jun-10 08:00N 37°56' W 008°51'0 0.0
2018-Jun-10 07:30N 37°56' W 008°51'0 0.0
2018-Jun-10 07:00N 37°56' W 008°51'0 0.0
2018-Jun-10 06:30N 37°56' W 008°51'0 0.0
2018-Jun-10 06:00N 37°56' W 008°51'0 0.0
2018-Jun-10 05:30N 37°56' W 008°51'0 0.0
2018-Jun-10 05:00N 37°56' W 008°51'0 0.0
2018-Jun-10 04:30N 37°56' W 008°51'0 0.0
2018-Jun-10 04:00N 37°56' W 008°51'0 0.0
2018-Jun-10 03:30N 37°56' W 008°51'0 0.0
2018-Jun-10 03:00N 37°56' W 008°51'0 0.0
2018-Jun-10 02:30N 37°56' W 008°51'0 0.0
2018-Jun-10 02:00N 37°56' W 008°51'0 0.0
2018-Jun-10 01:30N 37°56' W 008°51'0 0.1
2018-Jun-10 01:00N 37°56' W 008°51'1 2.4
2018-Jun-10 00:30N 37°55' W 008°50'1 2.3
2018-Jun-10 00:00N 37°54' W 008°50'1 1.2
2018-Jun-09 23:30N 37°53' W 008°51'2 3.1
2018-Jun-09 23:00N 37°53' W 008°53'2 3.5
2018-Jun-09 22:30N 37°53' W 008°55'5 9.7
2018-Jun-09 22:01N 37°54' W 009°01'1020.0
2018-Jun-09 21:30N 37°56' W 009°14'1019.8
2018-Jun-09 21:01N 37°58' W 009°26'1019.8
2018-Jun-09 20:30N 38°01' W 009°38'1019.6
2018-Jun-09 20:00N 38°04' W 009°50'1519.8
2018-Jun-09 19:16N 38°06' W 010°09'  
Track history (hours):
 
Tides and Currents Weather Stations Pressure Air Temp Water Temp Dewpoint Dewpoint Depression Visibility Wind Speed Wind Dir Waves Ship Positions

MSC Kwangyang

Last reported at 2018-Jun-19 06:30 UTC. Time now 2018-Jun-19 06:49 UTC.
Position N 43°15' E 009°41'.

Length 304 m; draft 10.1 m.

Type: Ship. MMSI: 636017973.

Date/timePositionNaut miles runAvg speedWind from/ knotsBaromVisibWave heightAir tempDewpointWater temp
2018-Jun-19 06:30N 43°15' E 009°41'1019.3
2018-Jun-19 06:01N 43°05' E 009°38'1020.3
2018-Jun-19 05:31N 42°55' E 009°40'1122.7
2018-Jun-19 05:01N 42°44' E 009°45'1222.5
2018-Jun-19 04:28N 42°33' E 009°50'1022.3
2018-Jun-19 04:01N 42°23' E 009°55'1121.9
2018-Jun-19 03:31N 42°15' E 010°05'1222.6
2018-Jun-19 02:59N 42°09' E 010°18'1222.8
2018-Jun-19 02:27N 42°01' E 010°31'7223.0
2018-Jun-18 23:21N 41°19' E 011°49'823.6
2018-Jun-18 23:01N 41°15' E 011°57'1223.1
2018-Jun-18 22:30N 41°08' E 012°09'1822.7
2018-Jun-18 21:44N 40°57' E 012°28'522.7
2018-Jun-18 21:30N 40°54' E 012°34'1123.0
2018-Jun-18 21:01N 40°48' E 012°46'1122.6
2018-Jun-18 20:30N 40°43' E 012°60'1122.9
2018-Jun-18 20:00N 40°42' E 013°15'1122.8
2018-Jun-18 19:30N 40°40' E 013°30'1122.6
2018-Jun-18 19:00N 40°39' E 013°45'1122.5
2018-Jun-18 18:30N 40°38' E 013°59'1122.2
2018-Jun-18 18:00N 40°44' E 014°12'714.5
2018-Jun-18 17:31N 40°49' E 014°18'1 2.4
2018-Jun-18 16:59N 40°50' E 014°17'0 0.0
2018-Jun-18 16:29N 40°50' E 014°17'0 0.0
2018-Jun-18 15:59N 40°50' E 014°17'0 0.0
2018-Jun-18 15:29N 40°50' E 014°17'0 0.0
2018-Jun-18 14:59N 40°50' E 014°17'0 0.0
2018-Jun-18 14:29N 40°50' E 014°17'0 0.0
2018-Jun-18 13:59N 40°50' E 014°17'0 0.0
2018-Jun-18 13:29N 40°50' E 014°17'0 0.0
2018-Jun-18 12:59N 40°50' E 014°17'0 0.0
2018-Jun-18 12:29N 40°50' E 014°17'0 0.0
2018-Jun-18 11:59N 40°50' E 014°17'0 0.0
2018-Jun-18 11:29N 40°50' E 014°17'0 0.0
2018-Jun-18 10:59N 40°50' E 014°17'0 0.0
2018-Jun-18 10:29N 40°50' E 014°17'0 0.0
2018-Jun-18 09:59N 40°50' E 014°17'0 0.0
2018-Jun-18 09:29N 40°50' E 014°17'0 0.0
2018-Jun-18 08:59N 40°50' E 014°17'0 0.0
2018-Jun-18 08:29N 40°50' E 014°17'0 0.0
2018-Jun-18 07:59N 40°50' E 014°17'0 0.0
2018-Jun-18 07:29N 40°50' E 014°17'0 0.0
2018-Jun-18 06:59N 40°50' E 014°17'0 0.0
2018-Jun-18 06:29N 40°50' E 014°17'0 0.0
2018-Jun-18 05:59N 40°50' E 014°17'0 0.0
2018-Jun-18 05:29N 40°50' E 014°17'0 0.0
2018-Jun-18 04:59N 40°50' E 014°17'0 0.0
2018-Jun-18 04:29N 40°50' E 014°17'0 0.0
2018-Jun-18 03:59N 40°50' E 014°17'0 0.0
2018-Jun-18 03:29N 40°50' E 014°17'0 0.0
2018-Jun-18 02:59N 40°50' E 014°17'0 0.1
2018-Jun-18 02:29N 40°50' E 014°17'0 0.0
2018-Jun-18 01:59N 40°50' E 014°17'0 0.0
2018-Jun-18 01:29N 40°50' E 014°17'0 0.0
2018-Jun-18 00:59N 40°50' E 014°17'0 0.0
2018-Jun-18 00:29N 40°50' E 014°17'0 0.0
2018-Jun-17 23:56N 40°50' E 014°17'0 0.0
2018-Jun-17 23:29N 40°50' E 014°17'0 0.0
2018-Jun-17 22:59N 40°50' E 014°17'0 0.0
2018-Jun-17 22:29N 40°50' E 014°17'0 0.0
2018-Jun-17 21:59N 40°50' E 014°17'0 0.0
2018-Jun-17 21:29N 40°50' E 014°17'0 0.0
2018-Jun-17 20:59N 40°50' E 014°17'0 0.0
2018-Jun-17 20:29N 40°50' E 014°17'0 0.0
2018-Jun-17 19:59N 40°50' E 014°17'0 0.0
2018-Jun-17 19:29N 40°50' E 014°17'0 0.0
2018-Jun-17 18:59N 40°50' E 014°17'0 0.0
2018-Jun-17 18:29N 40°50' E 014°17'0 0.0
2018-Jun-17 17:59N 40°50' E 014°17'0 0.0
2018-Jun-17 17:29N 40°50' E 014°17'0 0.0
2018-Jun-17 16:59N 40°50' E 014°17'0 0.0
2018-Jun-17 16:29N 40°50' E 014°17'0 0.0
2018-Jun-17 15:59N 40°50' E 014°17'0 0.2
2018-Jun-17 15:30N 40°50' E 014°17'2 3.2
2018-Jun-17 15:00N 40°49' E 014°17'5 9.7
2018-Jun-17 14:30N 40°44' E 014°15'1 2.3
2018-Jun-17 14:00N 40°43' E 014°15'0 0.4
2018-Jun-17 13:30N 40°43' E 014°15'0 0.9
2018-Jun-17 13:00N 40°42' E 014°14'1 2.9
2018-Jun-17 12:30N 40°41' E 014°14'611.5
2018-Jun-17 12:00N 40°36' E 014°09'711.6
2018-Jun-17 11:22N 40°29' E 014°09'512.3
2018-Jun-17 10:59N 40°25' E 014°12'612.4
2018-Jun-17 10:30N 40°20' E 014°17'612.6
2018-Jun-17 10:00N 40°15' E 014°21'612.6
2018-Jun-17 09:30N 40°09' E 014°26'612.4
2018-Jun-17 09:00N 40°04' E 014°30'11612.6
2018-Jun-16 23:49N 38°28' E 015°53'1 4.5
2018-Jun-16 23:30N 38°27' E 015°54'0 0.5
2018-Jun-16 22:56N 38°27' E 015°54'0 0.0
2018-Jun-16 22:26N 38°27' E 015°54'0 0.0
2018-Jun-16 21:56N 38°27' E 015°54'0 0.1
2018-Jun-16 21:26N 38°27' E 015°54'0 0.1
2018-Jun-16 20:56N 38°27' E 015°54'0 0.0
2018-Jun-16 20:26N 38°27' E 015°54'0 0.0
2018-Jun-16 19:56N 38°27' E 015°54'0 0.0
2018-Jun-16 19:26N 38°27' E 015°54'0 0.0
2018-Jun-16 17:08N 38°27' E 015°54'0 0.0
2018-Jun-16 16:56N 38°27' E 015°54'0 0.0
2018-Jun-16 16:26N 38°27' E 015°54'0 0.0
2018-Jun-16 15:56N 38°27' E 015°54'0 0.0
2018-Jun-16 15:26N 38°27' E 015°54'0 0.0
2018-Jun-16 14:56N 38°27' E 015°54'0 0.0
2018-Jun-16 14:26N 38°27' E 015°54'0 0.0
2018-Jun-16 13:56N 38°27' E 015°54'0 0.0
2018-Jun-16 13:26N 38°27' E 015°54'0 0.0
2018-Jun-16 12:56N 38°27' E 015°54'0 0.0
2018-Jun-16 12:20N 38°27' E 015°54'0 0.0
2018-Jun-16 11:56N 38°27' E 015°54'0 0.0
2018-Jun-16 11:26N 38°27' E 015°54'0 0.0
2018-Jun-16 10:56N 38°27' E 015°54'0 0.0
2018-Jun-16 10:26N 38°27' E 015°54'0 0.0
2018-Jun-16 09:56N 38°27' E 015°54'0 0.0
2018-Jun-16 09:26N 38°27' E 015°54'0 0.0
2018-Jun-16 08:56N 38°27' E 015°54'0 0.0
2018-Jun-16 08:26N 38°27' E 015°54'0 0.0
2018-Jun-16 07:56N 38°27' E 015°54'0 0.0
2018-Jun-16 07:26N 38°27' E 015°54'0 0.0
2018-Jun-16 06:56N 38°27' E 015°54'0 0.0
2018-Jun-16 05:44N 38°27' E 015°54'0 0.0
2018-Jun-16 05:26N 38°27' E 015°54'0 0.0
2018-Jun-16 04:56N 38°27' E 015°54'0 0.0
2018-Jun-16 04:26N 38°27' E 015°54'0 0.0
2018-Jun-16 03:56N 38°27' E 015°54'0 0.0
2018-Jun-16 03:26N 38°27' E 015°54'0 0.0
2018-Jun-16 02:56N 38°27' E 015°54'0 0.0
2018-Jun-16 02:26N 38°27' E 015°54'0 0.0
2018-Jun-16 01:50N 38°27' E 015°54'0 0.0
2018-Jun-16 01:26N 38°27' E 015°54'0 0.0
2018-Jun-16 00:56N 38°27' E 015°54'0 0.0
2018-Jun-16 00:26N 38°27' E 015°54'0 0.0
2018-Jun-15 23:56N 38°27' E 015°54'0 0.1
2018-Jun-15 23:26N 38°27' E 015°54'0 0.1
2018-Jun-15 22:56N 38°27' E 015°54'0 0.0
2018-Jun-15 22:26N 38°27' E 015°54'0 0.0
2018-Jun-15 21:56N 38°27' E 015°54'0 0.0
2018-Jun-15 21:26N 38°27' E 015°54'0 0.0
2018-Jun-15 20:56N 38°27' E 015°54'0 0.0
2018-Jun-15 20:26N 38°27' E 015°54'0 0.0
2018-Jun-15 19:56N 38°27' E 015°54'0 0.0
2018-Jun-15 19:26N 38°27' E 015°54'0 0.0
2018-Jun-15 18:56N 38°27' E 015°54'0 0.0
2018-Jun-15 18:26N 38°27' E 015°54'0 0.0
2018-Jun-15 17:44N 38°27' E 015°54'0 0.0
2018-Jun-15 17:26N 38°27' E 015°54'0 0.0
2018-Jun-15 16:56N 38°27' E 015°54'0 0.0
2018-Jun-15 16:20N 38°27' E 015°54'0 0.0
2018-Jun-15 15:56N 38°27' E 015°54'0 0.0
2018-Jun-15 15:26N 38°27' E 015°54'0 0.0
2018-Jun-15 14:56N 38°27' E 015°54'0 0.0
2018-Jun-15 14:20N 38°27' E 015°54'0 0.0
2018-Jun-15 13:50N 38°27' E 015°54'0 0.0
2018-Jun-15 13:26N 38°27' E 015°54'0 0.0
2018-Jun-15 12:56N 38°27' E 015°54'0 0.0
2018-Jun-15 12:26N 38°27' E 015°54'0 0.0
2018-Jun-15 11:56N 38°27' E 015°54'0 0.0
2018-Jun-15 11:26N 38°27' E 015°54'0 0.0
2018-Jun-15 10:56N 38°27' E 015°54'0 0.0
2018-Jun-15 10:26N 38°27' E 015°54'0 0.0
2018-Jun-15 09:56N 38°27' E 015°54'0 0.0
2018-Jun-15 09:26N 38°27' E 015°54'0 0.0
2018-Jun-15 08:56N 38°27' E 015°54'0 0.0
2018-Jun-15 08:26N 38°27' E 015°54'0 0.0
2018-Jun-15 07:56N 38°27' E 015°54'0 0.0
2018-Jun-15 07:26N 38°27' E 015°54'0 0.0
2018-Jun-15 06:56N 38°27' E 015°54'0 0.0
2018-Jun-15 06:20N 38°27' E 015°54'0 0.0
2018-Jun-15 05:56N 38°27' E 015°54'0 0.0
2018-Jun-15 05:26N 38°27' E 015°54'0 0.0
2018-Jun-15 04:56N 38°27' E 015°54'0 0.0
2018-Jun-15 04:20N 38°27' E 015°54'0 0.0
2018-Jun-15 03:56N 38°27' E 015°54'0 0.0
2018-Jun-15 03:29N 38°27' E 015°54'1 2.5
2018-Jun-15 03:00N 38°27' E 015°53'4 7.7
2018-Jun-15 02:30N 38°29' E 015°48'713.6
2018-Jun-15 01:59N 38°32' E 015°40'714.0
2018-Jun-15 01:29N 38°35' E 015°32'713.7
2018-Jun-15 01:00N 38°37' E 015°24'713.6
2018-Jun-15 00:30N 38°40' E 015°17'713.5
2018-Jun-15 00:00N 38°43' E 015°09'713.5
2018-Jun-14 23:29N 38°44' E 015°00'714.0
2018-Jun-14 23:00N 38°45' E 014°52'6513.3
2018-Jun-14 18:10N 38°50' E 013°29'213.7
2018-Jun-14 18:00N 38°50' E 013°26'714.0
2018-Jun-14 17:29N 38°50' E 013°17'814.4
2018-Jun-14 16:56N 38°50' E 013°07'714.6
2018-Jun-14 16:27N 38°50' E 012°57'48416.9
2018-Jun-13 11:48N 41°01' E 002°50'720.4
2018-Jun-13 11:27N 41°05' E 002°42'920.1
2018-Jun-13 11:01N 41°10' E 002°32'1019.7
2018-Jun-13 10:30N 41°13' E 002°20'816.4
2018-Jun-13 10:00N 41°18' E 002°10'1 2.6
2018-Jun-13 09:30N 41°18' E 002°09'0 0.4
2018-Jun-13 09:00N 41°19' E 002°09'0 0.0
2018-Jun-13 08:27N 41°19' E 002°09'0 0.0
2018-Jun-13 08:00N 41°19' E 002°09'0 0.0
2018-Jun-13 07:30N 41°19' E 002°09'0 0.1
2018-Jun-13 07:00N 41°19' E 002°09'0 0.1
2018-Jun-13 06:30N 41°19' E 002°09'0 0.0
2018-Jun-13 06:00N 41°19' E 002°09'0 0.0
2018-Jun-13 05:30N 41°19' E 002°09'0 0.0
2018-Jun-13 05:00N 41°19' E 002°09'0 0.0
2018-Jun-13 04:30N 41°19' E 002°09'0 0.0
2018-Jun-13 04:00N 41°19' E 002°09'0 0.0
2018-Jun-13 03:30N 41°19' E 002°09'0 0.0
2018-Jun-13 03:00N 41°19' E 002°09'0 0.0
2018-Jun-13 02:30N 41°19' E 002°09'0 0.0
2018-Jun-13 02:00N 41°19' E 002°09'0 0.0
2018-Jun-13 01:30N 41°19' E 002°09'0 0.0
2018-Jun-13 01:00N 41°19' E 002°09'0 0.0
2018-Jun-13 00:30N 41°19' E 002°09'0 0.0
2018-Jun-13 00:00N 41°19' E 002°09'0 0.0
2018-Jun-12 23:30N 41°19' E 002°09'0 0.0
2018-Jun-12 23:00N 41°19' E 002°09'0 0.0
2018-Jun-12 22:30N 41°19' E 002°09'0 0.0
2018-Jun-12 22:00N 41°19' E 002°09'0 0.0
2018-Jun-12 21:30N 41°19' E 002°09'0 0.0
2018-Jun-12 20:57N 41°19' E 002°09'0 0.0
2018-Jun-12 20:30N 41°19' E 002°09'0 0.0
2018-Jun-12 20:00N 41°19' E 002°09'0 0.0
2018-Jun-12 19:30N 41°19' E 002°09'0 0.0
2018-Jun-12 19:00N 41°19' E 002°09'0 0.0
2018-Jun-12 18:30N 41°19' E 002°09'0 0.0
2018-Jun-12 18:00N 41°19' E 002°09'0 0.0
2018-Jun-12 17:30N 41°19' E 002°09'0 0.0
2018-Jun-12 17:00N 41°19' E 002°09'0 0.3
2018-Jun-12 16:30N 41°19' E 002°09'1 2.7
2018-Jun-12 16:00N 41°18' E 002°11'3 6.0
2018-Jun-12 15:30N 41°15' E 002°11'510.9
2018-Jun-12 15:00N 41°10' E 002°08'612.3
2018-Jun-12 14:30N 41°05' E 002°04'612.3
2018-Jun-12 14:00N 40°59' E 002°00'713.0
2018-Jun-12 13:30N 40°53' E 001°56'913.2
2018-Jun-12 12:51N 40°46' E 001°51'14614.7
2018-Jun-12 02:55N 38°36' E 000°23'1019.1
2018-Jun-12 02:24N 38°28' E 000°16'819.0
2018-Jun-12 01:58N 38°21' E 000°10'919.2
2018-Jun-12 01:29N 38°13' E 000°04'919.3
2018-Jun-12 01:00N 38°05' W 000°03'1219.1
2018-Jun-12 00:22N 37°56' W 000°12'719.2
2018-Jun-12 00:00N 37°50' W 000°16'919.0
2018-Jun-11 23:30N 37°42' W 000°23'918.8
2018-Jun-11 23:00N 37°34' W 000°30'918.9
2018-Jun-11 22:30N 37°27' W 000°38'1819.3
2018-Jun-11 21:35N 37°16' W 000°55'219.4
2018-Jun-11 21:30N 37°14' W 000°57'1019.4
2018-Jun-11 21:00N 37°08' W 001°05'1119.4
2018-Jun-11 20:27N 37°01' W 001°15'919.2
2018-Jun-11 19:57N 36°54' W 001°24'37812.9
2018-Jun-10 14:38N 37°20' W 009°17'213.1
2018-Jun-10 14:30N 37°22' W 009°16'1313.0
2018-Jun-10 13:30N 37°33' W 009°07'612.9
2018-Jun-10 13:00N 37°38' W 009°03'612.9
2018-Jun-10 12:30N 37°44' W 008°58'612.8
2018-Jun-10 12:00N 37°49' W 008°54'612.3
2018-Jun-10 11:30N 37°55' W 008°50'1 2.7
2018-Jun-10 11:00N 37°56' W 008°51'0 0.0
2018-Jun-10 10:30N 37°56' W 008°51'0 0.0
2018-Jun-10 10:00N 37°56' W 008°51'0 0.0
2018-Jun-10 09:30N 37°56' W 008°51'0 0.0
2018-Jun-10 09:00N 37°56' W 008°51'0 0.0
2018-Jun-10 08:30N 37°56' W 008°51'0 0.0
2018-Jun-10 08:00N 37°56' W 008°51'0 0.0
2018-Jun-10 07:30N 37°56' W 008°51'0 0.0
2018-Jun-10 07:00N 37°56' W 008°51'0 0.0
2018-Jun-10 06:30N 37°56' W 008°51'0 0.0
2018-Jun-10 06:00N 37°56' W 008°51'0 0.0
2018-Jun-10 05:30N 37°56' W 008°51'0 0.0
2018-Jun-10 05:00N 37°56' W 008°51'0 0.0
2018-Jun-10 04:30N 37°56' W 008°51'0 0.0
2018-Jun-10 04:00N 37°56' W 008°51'0 0.0
2018-Jun-10 03:30N 37°56' W 008°51'0 0.0
2018-Jun-10 03:00N 37°56' W 008°51'0 0.0
2018-Jun-10 02:30N 37°56' W 008°51'0 0.0
2018-Jun-10 02:00N 37°56' W 008°51'0 0.0
2018-Jun-10 01:30N 37°56' W 008°51'0 0.1
2018-Jun-10 01:00N 37°56' W 008°51'1 2.4
2018-Jun-10 00:30N 37°55' W 008°50'1 2.3
2018-Jun-10 00:00N 37°54' W 008°50'1 1.2
2018-Jun-09 23:30N 37°53' W 008°51'2 3.1
2018-Jun-09 23:00N 37°53' W 008°53'2 3.5
2018-Jun-09 22:30N 37°53' W 008°55'5 9.7
2018-Jun-09 22:01N 37°54' W 009°01'1020.0
2018-Jun-09 21:30N 37°56' W 009°14'1019.8
2018-Jun-09 21:01N 37°58' W 009°26'1019.8
2018-Jun-09 20:30N 38°01' W 009°38'1019.6
2018-Jun-09 20:00N 38°04' W 009°50'1519.8
2018-Jun-09 19:16N 38°06' W 010°09'  

Dump ship's entire track history